createdAt,value
2022-12-26T00:00:37.608Z,3.88
2022-12-26T00:03:04.561Z,4.57
2022-12-26T00:05:36.685Z,5.22
2022-12-26T00:08:04.212Z,3.88
2022-12-26T00:10:30.890Z,4.85
2022-12-26T00:13:38.332Z,1.70
2022-12-26T00:15:44.492Z,1.85
2022-12-26T00:18:11.252Z,1.63
2022-12-26T00:20:37.994Z,1.55
2022-12-26T00:23:04.671Z,1.77
2022-12-26T00:25:34.312Z,4.32
2022-12-26T00:28:01.343Z,1.70
2022-12-26T00:30:28.082Z,4.32
2022-12-26T00:32:54.837Z,2.15
2022-12-26T00:35:21.923Z,1.25
2022-12-26T00:37:48.574Z,2.58
2022-12-26T00:40:15.278Z,2.22
2022-12-26T00:42:41.939Z,3.20
2022-12-26T00:45:08.945Z,3.30
2022-12-26T00:47:35.639Z,4.28
2022-12-26T00:50:13.156Z,3.25
2022-12-26T00:52:42.747Z,2.38
2022-12-26T00:55:10.368Z,2.25
2022-12-26T00:57:37.072Z,1.90
2022-12-26T01:00:04.807Z,2.42
2022-12-26T01:02:37.765Z,4.28
2022-12-26T01:05:08.832Z,1.63
2022-12-26T01:08:22.985Z,2.35
2022-12-26T01:10:27.435Z,3.00
2022-12-26T01:12:54.237Z,2.47
2022-12-26T01:15:20.944Z,5.15
2022-12-26T01:17:47.688Z,2.95
2022-12-26T01:20:14.685Z,5.05
2022-12-26T01:22:41.392Z,2.67
2022-12-26T01:25:08.708Z,5.38
2022-12-26T01:27:35.353Z,3.05
2022-12-26T01:30:02.050Z,2.17
2022-12-26T01:32:28.797Z,1.40
2022-12-26T01:34:56.202Z,4.45
2022-12-26T01:37:25.879Z,1.60
2022-12-26T01:39:52.585Z,2.25
2022-12-26T01:42:22.301Z,1.40
2022-12-26T01:45:04.421Z,1.75
2022-12-26T01:47:51.810Z,3.03
2022-12-26T01:50:27.752Z,6.53
2022-12-26T01:52:56.611Z,4.05
2022-12-26T01:55:23.550Z,4.25
2022-12-26T01:58:06.414Z,4.13
2022-12-26T02:00:34.117Z,4.25
2022-12-26T02:03:19.440Z,3.88
2022-12-26T02:05:46.309Z,5.95
2022-12-26T02:08:21.494Z,1.85
2022-12-26T02:10:55.085Z,2.03
2022-12-26T02:13:21.893Z,2.45
2022-12-26T02:15:48.694Z,2.33
2022-12-26T02:18:15.427Z,1.30
2022-12-26T02:20:56.365Z,2.03
2022-12-26T02:24:01.497Z,2.22
2022-12-26T02:26:58.112Z,1.50
2022-12-26T02:29:55.042Z,2.95
2022-12-26T02:32:48.130Z,2.45
2022-12-26T02:35:20.708Z,1.50
2022-12-26T02:38:45.961Z,2.85
2022-12-26T02:41:39.377Z,4.20
2022-12-26T02:45:11.295Z,1.95
2022-12-26T02:47:57.195Z,1.77
2022-12-26T02:51:05.872Z,2.40
2022-12-26T02:54:18.673Z,1.42
2022-12-26T02:57:18.249Z,1.63
2022-12-26T03:00:15.903Z,1.60
2022-12-26T03:03:22.473Z,1.17
2022-12-26T03:06:14.744Z,1.67
2022-12-26T03:09:13.993Z,1.27
2022-12-26T03:12:01.479Z,1.10
2022-12-26T03:14:38.090Z,2.88
2022-12-26T03:17:20.975Z,1.52
2022-12-26T03:20:01.120Z,1.45
2022-12-26T03:22:46.725Z,2.67
2022-12-26T03:25:38.825Z,1.85
2022-12-26T03:28:05.498Z,2.25
2022-12-26T03:30:50.503Z,1.80
2022-12-26T03:33:58.672Z,23.00
2022-12-26T03:37:03.646Z,10.38
2022-12-26T03:40:08.050Z,5.55
2022-12-26T03:43:10.828Z,3.28
2022-12-26T03:46:12.741Z,2.22
2022-12-26T03:49:08.028Z,2.17
2022-12-26T03:52:18.313Z,5.90
2022-12-26T03:55:25.500Z,12.02
2022-12-26T03:58:44.781Z,13.90
2022-12-26T04:01:36.412Z,7.07
2022-12-26T04:04:27.136Z,5.65
2022-12-26T04:07:17.597Z,1.63
2022-12-26T04:10:30.120Z,3.03
2022-12-26T04:13:18.136Z,1.30
2022-12-26T04:16:11.900Z,1.98
2022-12-26T04:19:21.159Z,1.55
2022-12-26T04:22:25.311Z,1.60
2022-12-26T04:25:48.363Z,1.25
2022-12-26T04:28:35.332Z,0.98
2022-12-26T04:31:50.673Z,1.08
2022-12-26T04:34:54.523Z,2.28
2022-12-26T04:37:43.704Z,1.10
2022-12-26T04:40:36.763Z,1.25
2022-12-26T04:43:46.605Z,1.58
2022-12-26T04:46:10.883Z,1.58
2022-12-26T04:49:03.766Z,2.28
2022-12-26T04:53:57.103Z,2.70
2022-12-26T04:56:24.099Z,1.77
2022-12-26T04:58:50.843Z,1.30
2022-12-26T05:01:36.296Z,1.73
2022-12-26T05:04:21.495Z,1.77
2022-12-26T05:07:07.023Z,2.15
2022-12-26T05:09:36.754Z,2.22
2022-12-26T05:12:09.058Z,2.22
2022-12-26T05:14:36.769Z,2.43
2022-12-26T05:17:24.187Z,3.63
2022-12-26T05:20:09.781Z,2.30
2022-12-26T05:22:59.444Z,1.67
2022-12-26T05:25:50.569Z,1.48
2022-12-26T05:28:36.476Z,1.42
2022-12-26T05:31:04.206Z,1.70
2022-12-26T05:33:49.488Z,1.58
2022-12-26T05:36:18.948Z,2.90
2022-12-26T05:38:45.774Z,2.28
2022-12-26T05:41:12.659Z,2.13
2022-12-26T05:43:39.510Z,1.23
2022-12-26T05:46:06.346Z,1.20
2022-12-26T05:48:33.011Z,0.77
2022-12-26T05:51:01.493Z,1.08
2022-12-26T05:53:29.350Z,1.20
2022-12-26T05:56:01.466Z,3.80
2022-12-26T05:58:28.520Z,1.38
2022-12-26T06:01:07.982Z,20.58
2022-12-26T06:03:35.678Z,14.80
2022-12-26T06:06:02.884Z,5.93
2022-12-26T06:08:29.732Z,15.20
2022-12-26T06:10:56.717Z,13.70
2022-12-26T06:13:23.527Z,33.45
2022-12-26T06:15:50.591Z,15.30
2022-12-26T06:18:17.507Z,5.35
2022-12-26T06:20:44.175Z,2.42
2022-12-26T06:23:10.817Z,2.33
2022-12-26T06:25:37.497Z,2.30
2022-12-26T06:28:04.369Z,2.53
2022-12-26T06:30:31.032Z,2.28
2022-12-26T06:32:57.881Z,2.30
2022-12-26T06:35:24.600Z,3.03
2022-12-26T06:37:52.012Z,18.13
2022-12-26T06:40:18.701Z,30.33
2022-12-26T06:42:45.392Z,14.68
2022-12-26T06:45:12.030Z,18.60
2022-12-26T06:47:38.889Z,10.75
2022-12-26T06:50:06.082Z,8.98
2022-12-26T06:52:32.787Z,3.80
2022-12-26T06:54:59.526Z,5.55
2022-12-26T06:57:26.407Z,4.80
2022-12-26T06:59:53.566Z,4.80
2022-12-26T07:02:20.790Z,2.28
2022-12-26T07:04:47.500Z,2.20
2022-12-26T07:07:14.304Z,4.30
2022-12-26T07:09:40.946Z,4.93
2022-12-26T07:12:07.675Z,3.10
2022-12-26T07:14:34.368Z,2.13
2022-12-26T07:17:02.256Z,1.83
2022-12-26T07:19:29.091Z,1.60
2022-12-26T07:21:55.829Z,2.17
2022-12-26T07:24:22.905Z,1.40
2022-12-26T07:26:50.294Z,1.67
2022-12-26T07:29:17.219Z,1.60
2022-12-26T07:31:44.257Z,2.10
2022-12-26T07:34:11.042Z,2.85
2022-12-26T07:36:37.747Z,1.98
2022-12-26T07:39:04.443Z,1.10
2022-12-26T07:41:49.628Z,1.25
2022-12-26T07:44:16.297Z,2.05
2022-12-26T07:46:43.191Z,1.15
2022-12-26T07:49:12.241Z,1.13
2022-12-26T07:51:38.946Z,1.92
2022-12-26T07:54:11.058Z,1.35
2022-12-26T07:56:38.843Z,2.55
2022-12-26T07:59:05.816Z,2.13
2022-12-26T08:01:32.634Z,1.33
2022-12-26T08:03:59.935Z,1.17
2022-12-26T08:06:27.668Z,1.23
2022-12-26T08:08:54.334Z,2.35
2022-12-26T08:11:23.687Z,1.20
2022-12-26T08:13:51.177Z,3.63
2022-12-26T08:16:18.047Z,1.00
2022-12-26T08:18:44.969Z,1.42
2022-12-26T08:21:12.689Z,1.15
2022-12-26T08:23:39.457Z,1.17
2022-12-26T08:26:08.150Z,1.13
2022-12-26T08:28:35.201Z,0.88
2022-12-26T08:31:09.170Z,1.25
2022-12-26T08:33:36.214Z,1.85
2022-12-26T08:36:08.014Z,3.35
2022-12-26T08:38:34.864Z,1.42
2022-12-26T08:41:02.224Z,1.95
2022-12-26T08:43:58.418Z,1.50
2022-12-26T08:46:15.901Z,0.77
2022-12-26T08:48:44.178Z,1.95
2022-12-26T08:51:25.010Z,3.28
2022-12-26T08:53:53.214Z,1.33
2022-12-26T08:56:25.160Z,1.15
2022-12-26T08:58:52.157Z,1.52
2022-12-26T09:01:27.337Z,0.75
2022-12-26T09:03:59.170Z,1.88
2022-12-26T09:06:26.541Z,1.75
2022-12-26T09:08:53.613Z,2.10
2022-12-26T09:11:23.416Z,2.08
2022-12-26T09:13:50.523Z,2.00
2022-12-26T09:16:22.338Z,0.95
2022-12-26T09:18:52.837Z,0.60
2022-12-26T09:21:19.521Z,0.60
2022-12-26T09:23:46.223Z,0.55
2022-12-26T09:26:19.639Z,0.80
2022-12-26T09:28:47.277Z,0.80
2022-12-26T09:31:26.052Z,0.82
2022-12-26T09:33:56.050Z,1.10
2022-12-26T09:36:26.669Z,0.70
2022-12-26T09:38:54.975Z,0.60
2022-12-26T09:41:42.377Z,0.60
2022-12-26T09:44:36.754Z,1.30
2022-12-26T09:47:03.393Z,2.97
2022-12-26T09:49:38.026Z,1.10
2022-12-26T09:52:19.312Z,1.40
2022-12-26T09:54:59.647Z,0.60
2022-12-26T09:57:43.950Z,1.80
2022-12-26T10:00:20.439Z,0.80
2022-12-26T10:02:52.982Z,1.15
2022-12-26T10:08:03.673Z,1.15
2022-12-26T10:10:45.930Z,1.50
2022-12-26T10:13:23.121Z,0.93
2022-12-26T10:15:55.876Z,1.23
2022-12-26T10:18:54.461Z,1.33
2022-12-26T10:21:42.516Z,1.10
2022-12-26T10:24:16.721Z,1.42
2022-12-26T10:26:56.943Z,4.25
2022-12-26T10:29:26.739Z,0.60
2022-12-26T10:32:08.526Z,0.60
2022-12-26T10:34:43.915Z,0.65
2022-12-26T10:37:14.029Z,0.60
2022-12-26T10:39:51.830Z,0.98
2022-12-26T10:42:39.643Z,2.63
2022-12-26T10:45:20.932Z,0.88
2022-12-26T10:47:50.554Z,0.82
2022-12-26T10:50:25.433Z,0.88
2022-12-26T10:52:55.050Z,2.25
2022-12-26T10:55:31.954Z,1.05
2022-12-26T10:58:14.477Z,2.00
2022-12-26T11:00:41.181Z,0.80
2022-12-26T11:03:17.451Z,0.98
2022-12-26T11:06:07.382Z,2.47
2022-12-26T11:08:49.386Z,2.58
2022-12-26T11:11:46.391Z,2.95
2022-12-26T11:14:33.836Z,1.17
2022-12-26T11:17:08.927Z,1.63
2022-12-26T11:19:39.671Z,0.77
2022-12-26T11:22:26.135Z,1.63
2022-12-26T11:25:27.499Z,0.88
2022-12-26T11:27:57.393Z,0.80
2022-12-26T11:30:31.537Z,1.00
2022-12-26T11:33:14.073Z,1.02
2022-12-26T11:35:54.950Z,1.00
2022-12-26T11:38:39.062Z,2.10
2022-12-26T11:41:39.543Z,1.15
2022-12-26T11:44:13.194Z,1.10
2022-12-26T11:47:00.270Z,2.78
2022-12-26T11:49:47.108Z,2.80
2022-12-26T11:52:32.576Z,1.60
2022-12-26T11:54:59.792Z,2.05
2022-12-26T11:57:31.926Z,3.78
2022-12-26T12:00:17.385Z,1.92
2022-12-26T12:02:44.314Z,2.28
2022-12-26T12:05:28.536Z,5.20
2022-12-26T12:08:25.467Z,4.78
2022-12-26T12:11:16.177Z,4.85
2022-12-26T12:14:12.411Z,2.58
2022-12-26T12:17:21.864Z,2.70
2022-12-26T12:20:25.152Z,4.70
2022-12-26T12:22:51.790Z,8.43
2022-12-26T12:25:30.361Z,7.28
2022-12-26T12:28:15.699Z,4.10
2022-12-26T12:31:04.460Z,4.97
2022-12-26T12:33:55.292Z,5.53
2022-12-26T12:36:34.176Z,5.40
2022-12-26T12:39:10.692Z,4.35
2022-12-26T12:41:45.228Z,4.18
2022-12-26T12:44:56.541Z,7.05
2022-12-26T12:47:48.076Z,4.05
2022-12-26T12:50:29.407Z,4.72
2022-12-26T12:53:05.399Z,3.83
2022-12-26T12:55:51.412Z,4.15
2022-12-26T12:58:27.522Z,3.85
2022-12-26T13:01:03.210Z,4.65
2022-12-26T13:03:40.216Z,5.95
2022-12-26T13:06:13.735Z,2.78
2022-12-26T13:08:45.742Z,2.25
2022-12-26T13:11:28.971Z,4.40
2022-12-26T13:14:11.016Z,2.15
2022-12-26T13:16:43.499Z,3.00
2022-12-26T13:21:48.016Z,2.25
2022-12-26T13:24:29.019Z,2.58
2022-12-26T13:27:06.812Z,2.00
2022-12-26T13:29:45.092Z,2.17
2022-12-26T13:32:26.543Z,1.90
2022-12-26T13:34:56.948Z,1.98
2022-12-26T13:37:55.239Z,1.63
2022-12-26T13:40:26.063Z,2.10
2022-12-26T13:43:21.398Z,2.13
2022-12-26T13:45:57.423Z,1.70
2022-12-26T13:48:27.288Z,2.00
2022-12-26T13:50:56.988Z,1.55
2022-12-26T13:53:26.663Z,1.98
2022-12-26T13:55:58.008Z,3.17
2022-12-26T13:58:36.322Z,1.50
2022-12-26T14:01:07.752Z,2.38
2022-12-26T14:03:52.432Z,1.52
2022-12-26T14:06:31.135Z,1.83
2022-12-26T14:09:31.492Z,1.50
2022-12-26T14:12:12.846Z,1.30
2022-12-26T14:15:01.858Z,1.48
2022-12-26T14:17:55.361Z,2.22
2022-12-26T14:20:49.907Z,1.20
2022-12-26T14:23:45.556Z,1.30
2022-12-26T14:26:48.682Z,0.95
2022-12-26T14:32:01.995Z,1.67
2022-12-26T14:34:56.196Z,1.52
2022-12-26T14:37:40.795Z,0.60
2022-12-26T14:40:28.993Z,0.90
2022-12-26T14:43:10.742Z,1.27
2022-12-26T14:45:37.531Z,1.42
2022-12-26T14:48:24.200Z,0.95
2022-12-26T14:50:56.279Z,0.80
2022-12-26T14:53:28.813Z,0.82
2022-12-26T14:58:44.837Z,1.20
2022-12-26T15:01:20.507Z,0.70
2022-12-26T15:04:08.905Z,0.60
2022-12-26T15:06:53.710Z,0.52
2022-12-26T15:09:55.814Z,0.95
2022-12-26T15:13:09.825Z,0.43
2022-12-26T15:16:03.125Z,0.40
2022-12-26T15:18:51.642Z,0.40
2022-12-26T15:21:30.821Z,0.30
2022-12-26T15:24:52.450Z,0.40
2022-12-26T15:28:03.689Z,0.57
2022-12-26T15:30:42.979Z,0.40
2022-12-26T15:33:34.076Z,0.60
2022-12-26T15:36:25.777Z,0.40
2022-12-26T15:39:04.904Z,0.50
2022-12-26T15:41:47.941Z,1.38
2022-12-26T15:44:34.232Z,0.70
2022-12-26T15:47:23.624Z,1.67
2022-12-26T15:50:28.103Z,1.10
2022-12-26T15:53:07.584Z,0.47
2022-12-26T15:56:03.732Z,0.82
2022-12-26T15:59:09.471Z,1.38
2022-12-26T16:01:41.742Z,0.60
2022-12-26T16:04:31.162Z,0.77
2022-12-26T16:07:17.016Z,0.52
2022-12-26T16:09:51.736Z,0.30
2022-12-26T16:12:22.986Z,0.60
2022-12-26T16:14:50.750Z,0.60
2022-12-26T16:17:22.086Z,0.80
2022-12-26T16:19:50.919Z,0.77
2022-12-26T16:22:49.517Z,0.70
2022-12-26T16:25:26.062Z,1.17
2022-12-26T16:27:58.517Z,1.25
2022-12-26T16:30:28.733Z,1.13
2022-12-26T16:32:55.850Z,3.40
2022-12-26T16:35:26.512Z,0.60
2022-12-26T16:37:55.305Z,0.40
2022-12-26T16:40:33.364Z,0.85
2022-12-26T16:43:23.874Z,0.50
2022-12-26T16:45:54.059Z,0.30
2022-12-26T16:48:23.239Z,0.73
2022-12-26T16:51:05.990Z,0.40
2022-12-26T16:56:21.184Z,0.50
2022-12-26T16:59:01.227Z,0.30
2022-12-26T17:01:32.998Z,0.30
2022-12-26T17:04:04.355Z,0.43
2022-12-26T17:06:38.610Z,0.30
2022-12-26T17:09:17.219Z,0.70
2022-12-26T17:12:06.704Z,1.55
2022-12-26T17:14:36.004Z,0.32
2022-12-26T17:17:33.771Z,0.28
2022-12-26T17:20:23.122Z,1.30
2022-12-26T17:22:54.768Z,0.20
2022-12-26T17:25:27.718Z,0.40
2022-12-26T17:28:09.807Z,0.65
2022-12-26T17:30:37.536Z,0.88
2022-12-26T17:33:25.671Z,0.65
2022-12-26T17:38:54.200Z,1.90
2022-12-26T17:41:20.935Z,0.30
2022-12-26T17:43:48.401Z,0.28
2022-12-26T17:46:17.167Z,0.40
2022-12-26T17:48:44.619Z,0.60
2022-12-26T17:51:16.289Z,0.45
2022-12-26T17:53:47.664Z,0.50
2022-12-26T17:56:19.911Z,5.63
2022-12-26T17:58:47.602Z,7.43
2022-12-26T18:01:20.710Z,0.40
2022-12-26T18:03:48.446Z,0.40
2022-12-26T18:06:16.654Z,0.38
2022-12-26T18:08:44.398Z,0.30
2022-12-26T18:11:13.038Z,0.30
2022-12-26T18:13:40.003Z,0.60
2022-12-26T18:16:07.668Z,0.30
2022-12-26T18:18:39.660Z,0.20
2022-12-26T18:21:09.953Z,0.35
2022-12-26T18:23:37.425Z,0.90
2022-12-26T18:26:12.866Z,0.25
2022-12-26T18:28:39.643Z,0.28
2022-12-26T18:31:06.320Z,0.38
2022-12-26T18:33:33.072Z,0.20
2022-12-26T18:36:04.347Z,0.40
2022-12-26T18:38:33.986Z,0.90
2022-12-26T18:41:02.319Z,0.75
2022-12-26T18:43:28.994Z,0.43
2022-12-26T18:45:55.887Z,0.28
2022-12-26T18:48:22.667Z,0.25
2022-12-26T18:50:49.312Z,0.30
2022-12-26T18:53:16.266Z,0.32
2022-12-26T18:55:43.029Z,0.57
2022-12-26T18:58:10.374Z,0.30
2022-12-26T19:00:37.777Z,0.30
2022-12-26T19:03:04.571Z,2.20
2022-12-26T19:05:34.226Z,0.82
2022-12-26T19:08:02.009Z,0.22
2022-12-26T19:10:32.609Z,0.40
2022-12-26T19:13:05.809Z,1.63
2022-12-26T19:15:34.817Z,0.30
2022-12-26T19:18:02.283Z,1.38
2022-12-26T19:20:29.123Z,0.68
2022-12-26T19:22:56.120Z,2.35
2022-12-26T19:25:24.546Z,0.98
2022-12-26T19:27:51.435Z,0.85
2022-12-26T19:30:18.813Z,0.30
2022-12-26T19:32:46.021Z,0.65
2022-12-26T19:35:13.927Z,0.75
2022-12-26T19:37:41.194Z,0.35
2022-12-26T19:40:09.659Z,0.30
2022-12-26T19:42:37.369Z,0.40
2022-12-26T19:45:09.240Z,0.30
2022-12-26T19:47:36.473Z,0.38
2022-12-26T19:50:05.392Z,0.30
2022-12-26T19:52:32.135Z,0.30
2022-12-26T19:54:58.781Z,0.20
2022-12-26T19:57:25.530Z,0.20
2022-12-26T19:59:52.190Z,0.25
2022-12-26T20:02:19.039Z,0.32
2022-12-26T20:04:45.963Z,0.30
2022-12-26T20:07:12.606Z,0.30
2022-12-26T20:09:39.362Z,0.20
2022-12-26T20:12:06.261Z,0.20
2022-12-26T20:14:32.929Z,0.20
2022-12-26T20:17:08.806Z,0.65
2022-12-26T20:19:36.761Z,0.30
2022-12-26T20:22:04.724Z,0.30
2022-12-26T20:24:31.486Z,0.30
2022-12-26T20:26:58.195Z,0.60
2022-12-26T20:29:24.978Z,0.22
2022-12-26T20:31:54.981Z,4.95
2022-12-26T20:34:21.879Z,0.35
2022-12-26T20:36:48.577Z,0.30
2022-12-26T20:39:18.431Z,0.30
2022-12-26T20:41:45.882Z,0.20
2022-12-26T20:44:14.108Z,0.40
2022-12-26T20:46:42.218Z,0.20
2022-12-26T20:49:09.841Z,0.50
2022-12-26T20:51:39.390Z,1.20
2022-12-26T20:54:07.548Z,0.28
2022-12-26T20:56:35.725Z,0.20
2022-12-26T20:59:03.261Z,0.22
2022-12-26T21:01:30.620Z,0.65
2022-12-26T21:03:58.162Z,0.20
2022-12-26T21:06:30.365Z,0.45
2022-12-26T21:08:57.901Z,0.10
2022-12-26T21:11:33.770Z,0.20
2022-12-26T21:14:11.046Z,0.40
2022-12-26T21:16:41.049Z,1.67
2022-12-26T21:19:14.687Z,0.40
2022-12-26T21:21:44.314Z,0.20
2022-12-26T21:24:17.046Z,0.20
2022-12-26T21:29:14.246Z,0.45
2022-12-26T21:31:41.485Z,0.55
2022-12-26T21:34:08.768Z,0.20
2022-12-26T21:36:35.833Z,0.32
2022-12-26T21:39:07.341Z,0.40
2022-12-26T21:41:34.032Z,1.55
2022-12-26T21:44:01.153Z,0.20
2022-12-26T21:46:28.053Z,0.60
2022-12-26T21:48:55.183Z,0.30
2022-12-26T21:51:26.730Z,0.52
2022-12-26T21:54:13.577Z,0.10
2022-12-26T21:56:40.236Z,0.22
2022-12-26T21:59:25.316Z,0.10
2022-12-26T22:01:52.012Z,0.10
2022-12-26T22:04:18.737Z,0.10
2022-12-26T22:06:45.540Z,0.20
2022-12-26T22:09:12.648Z,0.20
2022-12-26T22:11:57.862Z,0.20
2022-12-26T22:14:24.701Z,0.35
2022-12-26T22:16:52.819Z,0.25
2022-12-26T22:19:19.469Z,0.10
2022-12-26T22:21:46.296Z,0.15
2022-12-26T22:24:13.060Z,0.52
2022-12-26T22:26:39.776Z,0.20
2022-12-26T22:29:06.440Z,0.77
2022-12-26T22:31:35.654Z,0.10
2022-12-26T22:34:09.512Z,0.20
2022-12-26T22:36:36.220Z,0.10
2022-12-26T22:39:03.853Z,0.20
2022-12-26T22:41:30.830Z,0.10
2022-12-26T22:43:57.484Z,0.47
2022-12-26T22:46:25.069Z,0.10
2022-12-26T22:48:52.065Z,0.10
2022-12-26T22:51:23.929Z,0.20
2022-12-26T22:53:54.358Z,0.20
2022-12-26T22:56:21.205Z,0.20
2022-12-26T22:58:47.924Z,0.10
2022-12-26T23:01:17.224Z,0.20
2022-12-26T23:03:44.519Z,0.20
2022-12-26T23:06:26.142Z,0.20
2022-12-26T23:08:56.558Z,0.20
2022-12-26T23:11:30.337Z,0.20
2022-12-26T23:14:01.846Z,0.30
2022-12-26T23:16:43.666Z,0.30
2022-12-26T23:19:52.562Z,0.30
2022-12-26T23:22:19.500Z,0.98
2022-12-26T23:24:46.211Z,0.35
2022-12-26T23:27:31.569Z,0.20
2022-12-26T23:30:17.114Z,0.30
2022-12-26T23:32:45.553Z,0.20
2022-12-26T23:35:12.689Z,0.20
2022-12-26T23:37:41.290Z,0.10
2022-12-26T23:40:10.411Z,0.10
2022-12-26T23:42:37.676Z,0.80
2022-12-26T23:45:05.074Z,0.30
2022-12-26T23:47:31.965Z,0.30
2022-12-26T23:49:58.635Z,0.30
2022-12-26T23:52:30.060Z,0.30
2022-12-26T23:54:57.484Z,0.30
2022-12-26T23:57:24.146Z,0.20
2022-12-26T23:59:50.864Z,0.30
